.
WxDataArchive / Data Records for 2009-04-11
2009-04-10 April 2009 2009-04-12

Data Records for Saturday, 11 April 2009

Time	Temp	Chill	HIndex	Humid	Dewpt	 Wind 	HiWind	WindDir	Rain 	Barom 
-----	----	-----	------	-----	-----	------	------	-------	-----	----- 
00:00	42.3	42.3	42.3	65	31.4	0	1	112	0.00	30.033 
00:05	42.1	42.1	42.1	65	31.2	0	1	112	0.00	30.033 
00:10	41.8	41.8	41.8	67	31.7	0	3	22	0.00	30.033 
00:15	41.5	41.5	41.5	66	31.0	0	2	135	0.00	30.036 
00:20	41.3	41.3	41.3	67	31.2	0	1	135	0.00	30.036 
00:25	41.2	41.2	41.2	66	30.7	0	2	68	0.00	30.036 
00:30	41.2	41.2	41.2	65	30.3	0	3	68	0.00	30.037 
00:35	41.1	41.1	41.1	65	30.2	0	3	180	0.00	30.037 
00:40	41.1	41.1	41.1	65	30.2	0	4	90	0.00	30.037 
00:45	40.9	40.9	40.9	65	30.1	0	1	90	0.00	30.043 
00:50	40.6	40.6	40.6	66	30.1	0	0	---	0.00	30.043 
00:55	40.5	40.5	40.5	67	30.4	0	1	90	0.00	30.043 
01:00	40.2	40.2	40.2	67	30.1	0	1	90	0.00	30.052 
01:05	40.1	40.1	40.1	68	30.4	0	1	90	0.00	30.052 
01:10	40.1	40.1	40.1	68	30.4	0	3	338	0.00	30.052 
01:15	39.9	39.9	39.9	68	30.2	0	4	90	0.00	30.057 
01:20	39.9	39.9	39.9	68	30.2	1	3	22	0.00	30.057 
01:25	39.8	39.8	39.8	68	30.1	0	2	22	0.00	30.057 
01:30	39.6	39.6	39.6	68	29.9	0	3	22	0.00	30.065 
01:35	39.5	39.5	39.5	69	30.2	0	2	22	0.00	30.065 
01:40	39.2	39.2	39.2	69	29.9	1	5	22	0.00	30.065 
01:45	39.1	39.1	39.1	68	29.4	0	2	45	0.00	30.070 
01:50	38.8	38.8	38.8	68	29.2	1	4	45	0.00	30.070 
01:55	38.5	38.5	38.5	68	28.9	0	2	22	0.00	30.070 
02:00	38.3	38.3	38.3	69	29.0	0	2	225	0.00	30.073 
02:05	38.0	38.0	38.0	69	28.7	0	2	225	0.00	30.073 
02:10	38.0	38.0	38.0	69	28.7	1	3	0	0.00	30.073 
02:15	37.8	37.8	37.8	69	28.6	0	3	0	0.00	30.075 
02:20	37.6	37.6	37.6	68	28.0	0	4	0	0.00	30.075 
02:25	37.3	37.3	37.3	69	28.1	0	4	0	0.00	30.075 
02:30	37.2	37.2	37.2	69	28.0	0	1	45	0.00	30.077 
02:35	36.9	36.9	36.9	69	27.7	0	4	22	0.00	30.077 
02:40	36.8	36.8	36.8	69	27.6	0	2	22	0.00	30.077 
02:45	36.6	36.6	36.6	69	27.4	0	2	22	0.00	30.079 
02:50	36.3	36.3	36.3	69	27.1	0	4	45	0.00	30.079 
02:55	36.2	36.2	36.2	69	27.0	0	1	45	0.00	30.079 
03:00	36.0	36.0	36.0	69	26.8	0	2	22	0.00	30.086 
03:05	35.9	35.9	35.9	70	27.1	0	1	22	0.00	30.086 
03:10	35.8	35.8	35.8	70	27.0	0	2	22	0.00	30.086 
03:15	35.8	35.8	35.8	70	27.0	0	3	22	0.00	30.087 
03:20	35.6	35.6	35.6	69	26.4	0	1	22	0.00	30.087 
03:25	35.5	35.5	35.5	69	26.4	0	1	22	0.00	30.087 
03:30	35.3	35.3	35.3	69	26.2	0	2	22	0.00	30.090 
03:35	35.2	35.2	35.2	70	26.4	0	3	45	0.00	30.090 
03:40	35.0	35.0	35.0	69	25.9	0	2	0	0.00	30.090 
03:45	34.9	34.9	34.9	69	25.8	0	2	0	0.00	30.091 
03:50	34.7	34.7	34.7	69	25.6	0	3	0	0.00	30.091 
03:55	34.7	34.7	34.7	69	25.6	0	2	22	0.00	30.091 
04:00	34.6	34.6	34.6	68	25.1	0	1	22	0.00	30.097 
04:05	34.4	34.4	34.4	68	24.9	0	2	22	0.00	30.097 
04:10	34.3	34.3	34.3	67	24.5	0	2	22	0.00	30.097 
04:15	34.3	34.3	34.3	67	24.5	1	4	22	0.00	30.101 
04:20	34.3	34.3	34.3	67	24.5	0	2	0	0.00	30.101 
04:25	34.1	34.1	34.1	67	24.3	0	3	248	0.00	30.101 
04:30	34.0	34.0	34.0	66	23.9	0	2	248	0.00	30.105 
04:35	33.8	33.8	33.8	66	23.7	0	4	22	0.00	30.105 
04:40	33.7	33.7	33.7	65	23.2	0	2	22	0.00	30.105 
04:45	33.7	33.7	33.7	65	23.2	0	2	0	0.00	30.111 
04:50	33.5	33.5	33.5	65	23.0	0	3	248	0.00	30.111 
04:55	33.5	33.5	33.5	65	23.0	0	2	90	0.00	30.111 
05:00	33.4	33.4	33.4	64	22.6	0	2	22	0.00	30.120 
05:05	33.4	33.4	33.4	64	22.6	0	3	22	0.00	30.120 
05:10	33.2	33.2	33.2	64	22.4	0	3	45	0.00	30.120 
05:15	33.1	33.1	33.1	64	22.3	0	1	45	0.00	30.119 
05:20	32.9	32.9	32.9	64	22.1	0	3	45	0.00	30.119 
05:25	32.9	32.9	32.9	63	21.7	1	4	22	0.00	30.119 
05:30	32.8	32.8	32.8	63	21.6	0	3	22	0.00	30.127 
05:35	32.7	32.7	32.7	63	21.5	0	3	0	0.00	30.127 
05:40	32.7	32.7	32.7	62	21.1	1	4	22	0.00	30.127 
05:45	32.5	32.5	32.5	62	20.9	0	2	22	0.00	30.132 
05:50	32.4	32.4	32.4	63	21.2	0	2	22	0.00	30.132 
05:55	32.4	32.4	32.4	63	21.2	0	3	0	0.00	30.132 
06:00	32.1	32.1	32.1	63	20.9	0	3	0	0.00	30.138 
06:05	32.1	32.1	32.1	64	21.3	0	3	0	0.00	30.138 
06:10	31.9	31.9	31.9	64	21.1	0	1	0	0.00	30.138 
06:15	31.8	31.8	31.8	64	21.0	1	5	338	0.00	30.149 
06:20	31.8	31.8	31.8	65	21.4	0	4	22	0.00	30.149 
06:25	31.8	31.8	31.8	65	21.4	0	2	22	0.00	30.149 
06:30	31.6	31.6	31.6	65	21.2	0	1	22	0.00	30.156 
06:35	31.5	31.5	31.5	66	21.5	0	2	22	0.00	30.156 
06:40	31.3	31.3	31.3	66	21.3	0	1	22	0.00	30.156 
06:45	31.2	31.2	31.2	67	21.5	0	2	22	0.00	30.169 
06:50	31.0	31.0	31.0	67	21.3	0	1	22	0.00	30.169 
06:55	31.0	31.0	31.0	68	21.7	0	1	22	0.00	30.169 
07:00	30.9	30.9	30.9	68	21.6	0	1	22	0.00	30.172 
07:05	30.9	30.9	30.9	68	21.6	0	1	22	0.00	30.172 
07:10	30.7	30.7	30.7	69	21.8	0	3	22	0.00	30.172 
07:15	30.7	30.7	30.7	69	21.8	0	1	22	0.00	30.180 
07:20	30.7	30.7	30.7	69	21.8	0	3	22	0.00	30.180 
07:25	30.7	30.7	30.7	68	21.4	0	1	22	0.00	30.180 
07:30	30.7	30.7	30.7	69	21.8	0	2	22	0.00	30.187 
07:35	30.7	30.7	30.7	68	21.4	0	1	22	0.00	30.187 
07:40	30.9	30.9	30.9	68	21.6	0	1	22	0.00	30.187 
07:45	31.0	31.0	31.0	67	21.3	0	1	22	0.00	30.196 
07:50	31.3	31.3	31.3	66	21.3	1	4	22	0.00	30.196 
07:55	31.5	31.5	31.5	66	21.5	0	2	0	0.00	30.196 
08:00	31.8	31.8	31.8	65	21.4	0	2	0	0.00	30.201 
08:05	32.1	32.1	32.1	64	21.3	1	3	0	0.00	30.201 
08:10	32.5	32.5	32.5	63	21.3	1	3	22	0.00	30.201 
08:15	33.1	33.1	33.1	62	21.5	0	3	22	0.00	30.214 
08:20	33.7	33.7	33.7	60	21.3	0	3	22	0.00	30.214 
08:25	34.1	34.1	34.1	59	21.3	1	4	0	0.00	30.214 
08:30	34.4	34.4	34.4	58	21.2	1	3	45	0.00	30.220 
08:35	34.6	34.6	34.6	58	21.4	1	6	0	0.00	30.220 
08:40	34.6	34.6	34.6	58	21.4	1	3	0	0.00	30.220 
08:45	34.6	34.6	34.6	58	21.4	1	4	22	0.00	30.224 
08:50	34.9	34.9	34.9	57	21.2	1	5	45	0.00	30.224 
08:55	35.2	35.2	35.2	58	21.9	1	6	22	0.00	30.224 
09:00	35.3	35.3	35.3	56	21.2	1	3	0	0.00	30.229 
09:05	35.5	35.5	35.5	56	21.4	1	3	315	0.00	30.229 
09:10	35.8	35.8	35.8	57	22.1	1	6	338	0.00	30.229 
09:15	36.3	36.3	36.3	57	22.5	1	4	292	0.00	30.235 
09:20	37.0	37.0	37.0	55	22.4	1	3	0	0.00	30.235 
09:25	37.6	37.6	37.6	54	22.5	0	3	22	0.00	30.235 
09:30	38.3	38.3	38.3	52	22.2	1	5	0	0.00	30.240 
09:35	38.5	38.5	38.5	53	22.9	1	4	45	0.00	30.240 
09:40	38.3	38.3	38.3	52	22.2	1	5	45	0.00	30.240 
09:45	38.3	38.3	38.3	52	22.2	1	4	22	0.00	30.244 
09:50	38.8	38.8	38.8	52	22.7	1	3	22	0.00	30.244 
09:55	39.2	39.2	39.2	51	22.6	1	5	22	0.00	30.244 
10:00	39.9	39.9	39.9	50	22.8	2	5	45	0.00	30.246 
10:05	40.6	40.6	40.6	49	23.0	1	5	135	0.00	30.246 
10:10	41.1	41.1	41.1	51	24.4	1	4	45	0.00	30.246 
10:15	41.3	41.3	41.3	49	23.6	1	5	68	0.00	30.254 
10:20	41.5	41.5	41.5	49	23.8	1	5	45	0.00	30.254 
10:25	41.5	41.5	41.5	49	23.8	2	5	45	0.00	30.254 
10:30	41.5	41.5	41.5	48	23.3	1	5	45	0.00	30.260 
10:35	41.8	41.8	41.8	47	23.1	1	6	0	0.00	30.260 
10:40	42.2	42.2	42.2	47	23.4	2	5	45	0.00	30.260 
10:45	42.9	42.9	42.9	45	23.0	1	5	45	0.00	30.261 
10:50	43.3	43.3	43.3	46	23.9	1	3	22	0.00	30.261 
10:55	43.9	43.9	43.9	43	22.9	1	5	22	0.00	30.261 
11:00	43.9	43.9	43.9	43	22.9	2	6	112	0.00	30.270 
11:05	44.2	44.2	44.2	42	22.6	3	7	22	0.00	30.270 
11:10	44.8	44.8	44.8	39	21.4	2	6	45	0.00	30.270 
11:15	45.1	45.1	45.1	44	24.5	2	6	90	0.00	30.271 
11:20	45.2	45.2	45.2	39	21.7	3	8	45	0.00	30.271 
11:25	45.5	45.5	45.5	40	22.6	2	5	22	0.00	30.271 
11:30	45.5	45.5	45.5	38	21.4	2	6	45	0.00	30.273 
11:35	45.5	45.5	45.5	42	23.8	1	6	22	0.00	30.273 
11:40	45.7	45.7	45.7	41	23.4	2	7	22	0.00	30.273 
11:45	46.0	46.0	46.0	39	22.4	2	7	135	0.00	30.276 
11:50	46.1	46.1	46.1	39	22.5	2	4	22	0.00	30.276 
11:55	46.1	46.1	46.1	40	23.1	1	5	45	0.00	30.276 
12:00	46.2	46.2	46.2	38	22.0	1	2	45	0.00	30.283 
12:05	46.4	46.4	46.4	42	24.6	1	6	45	0.00	30.283 
12:10	47.3	47.3	47.3	46	27.6	1	3	45	0.00	30.283 
12:15	47.7	47.7	47.7	43	26.3	1	4	45	0.00	30.285 
12:20	48.0	48.0	48.0	39	24.2	1	7	68	0.00	30.285 
12:25	48.0	48.0	48.0	42	26.0	1	5	68	0.00	30.285 
12:30	48.5	48.5	48.5	41	25.9	1	4	90	0.00	30.286 
12:35	48.6	48.6	48.6	39	24.8	2	5	135	0.00	30.286 
12:40	48.8	48.8	48.8	40	25.6	1	5	22	0.00	30.286 
12:45	48.8	48.8	48.8	35	22.4	2	7	90	0.00	30.286 
12:50	48.9	48.9	48.9	36	23.1	3	9	68	0.00	30.286 
12:55	49.2	49.2	49.2	38	24.7	1	9	0	0.00	30.286 
13:00	49.5	49.5	49.5	40	26.2	2	5	45	0.00	30.286 
13:05	49.5	49.5	49.5	35	23.0	1	4	45	0.00	30.286 
13:10	49.6	49.6	49.6	37	24.4	1	4	22	0.00	30.286 
13:15	49.8	49.8	49.8	35	23.3	2	5	22	0.00	30.286 
13:20	49.9	49.9	49.9	39	25.9	3	10	90	0.00	30.286 
13:25	50.4	50.4	50.4	34	23.1	1	7	68	0.00	30.286 
13:30	50.5	50.5	50.5	35	23.9	1	3	315	0.00	30.283 
13:35	50.8	50.8	50.8	32	22.0	1	6	292	0.00	30.283 
13:40	51.0	51.0	51.0	34	23.6	1	4	68	0.00	30.283 
13:45	51.0	51.0	51.0	36	25.0	2	6	45	0.00	30.282 
13:50	51.1	51.1	51.1	38	26.4	1	4	22	0.00	30.282 
13:55	51.3	51.3	51.3	37	25.9	2	6	112	0.00	30.282 
14:00	51.1	51.1	51.1	32	22.3	2	6	338	0.00	30.276 
14:05	50.7	50.7	50.7	30	20.4	1	4	315	0.00	30.276 
14:10	51.1	51.1	51.1	32	22.3	1	3	0	0.00	30.276 
14:15	51.3	51.3	51.3	31	21.7	2	9	112	0.00	30.278 
14:20	51.4	51.4	51.4	34	24.0	1	5	45	0.00	30.278 
14:25	51.6	51.6	51.6	33	23.4	1	7	292	0.00	30.278 
14:30	51.6	51.6	51.6	34	24.2	1	4	292	0.01	30.275 
14:35	51.7	51.7	51.7	33	23.5	2	6	22	0.00	30.275 
14:40	52.0	52.0	52.0	31	22.3	2	7	45	0.00	30.275 
14:45	52.0	52.0	52.0	27	19.1	0	2	22	0.00	30.271 
14:50	52.3	52.3	52.3	31	22.6	1	6	22	0.00	30.271 
14:55	52.5	52.5	52.5	35	25.6	2	5	112	0.00	30.271 
15:00	52.6	52.6	52.6	35	25.7	1	5	90	0.00	30.271 
15:05	52.9	52.9	52.9	31	23.1	1	3	22	0.00	30.271 
15:10	53.1	53.1	53.1	31	23.3	1	3	0	0.00	30.271 
15:15	53.1	53.1	53.1	29	21.7	1	5	270	0.00	30.269 
15:20	52.9	52.9	52.9	28	20.7	1	4	90	0.00	30.269 
15:25	53.2	53.2	53.2	35	26.3	2	6	68	0.00	30.269 
15:30	53.2	53.2	53.2	32	24.1	1	7	45	0.00	30.270 
15:35	53.1	53.1	53.1	31	23.3	1	4	270	0.00	30.270 
15:40	53.1	53.1	53.1	34	25.5	2	5	112	0.00	30.270 
15:45	53.2	53.2	53.2	31	23.4	1	5	270	0.00	30.267 
15:50	53.2	53.2	53.2	30	22.6	1	6	0	0.00	30.267 
15:55	53.5	53.5	53.5	32	24.4	2	5	68	0.00	30.267 
16:00	53.2	53.2	53.2	33	24.9	2	7	112	0.00	30.268 
16:05	53.3	53.3	53.3	28	21.0	1	6	0	0.00	30.268 
16:10	53.3	53.3	53.3	29	21.9	1	4	22	0.00	30.268 
16:15	53.3	53.3	53.3	28	21.0	0	2	22	0.00	30.270 
16:20	53.5	53.5	53.5	28	21.2	1	4	22	0.00	30.270 
16:25	53.5	53.5	53.5	27	20.4	1	5	338	0.00	30.270 
16:30	53.6	53.6	53.6	29	22.1	1	4	45	0.00	30.265 
16:35	53.6	53.6	53.6	28	21.3	2	6	22	0.00	30.265 
16:40	53.5	53.5	53.5	28	21.2	1	3	0	0.00	30.265 
16:45	53.3	53.3	53.3	28	21.0	2	5	338	0.00	30.265 
16:50	53.5	53.5	53.5	28	21.2	2	7	68	0.00	30.265 
16:55	53.6	53.6	53.6	28	21.3	2	6	68	0.00	30.265 
17:00	53.6	53.6	53.6	32	24.5	2	4	68	0.00	30.268 
17:05	53.5	53.5	53.5	29	22.0	0	2	68	0.00	30.268 
17:10	53.9	53.9	53.9	30	23.2	1	3	90	0.00	30.268 
17:15	54.2	54.2	54.2	27	21.0	1	4	0	0.00	30.265 
17:20	54.1	54.1	54.1	28	21.7	1	4	45	0.00	30.265 
17:25	53.8	53.8	53.8	26	19.7	1	3	0	0.00	30.265 
17:30	53.8	53.8	53.8	27	20.6	1	6	22	0.00	30.265 
17:35	53.6	53.6	53.6	28	21.3	2	5	45	0.00	30.265 
17:40	53.5	53.5	53.5	27	20.4	1	4	45	0.00	30.265 
17:45	53.3	53.3	53.3	27	20.2	1	7	90	0.00	30.272 
17:50	53.3	53.3	53.3	27	20.2	1	4	45	0.00	30.272 
17:55	53.3	53.3	53.3	28	21.0	1	3	315	0.00	30.272 
18:00	53.3	53.3	53.3	28	21.0	1	2	22	0.00	30.274 
18:05	53.5	53.5	53.5	27	20.4	0	3	248	0.00	30.274 
18:10	53.5	53.5	53.5	27	20.4	1	6	45	0.00	30.274 
18:15	53.1	53.1	53.1	26	19.1	2	7	22	0.00	30.274 
18:20	52.8	52.8	52.8	27	19.8	2	7	45	0.00	30.274 
18:25	52.6	52.6	52.6	27	19.6	1	2	45	0.00	30.274 
18:30	52.6	52.6	52.6	27	19.6	1	4	45	0.00	30.277 
18:35	52.5	52.5	52.5	27	19.5	1	3	45	0.00	30.277 
18:40	52.5	52.5	52.5	27	19.5	1	2	292	0.00	30.277 
18:45	52.3	52.3	52.3	26	18.4	0	2	0	0.00	30.280 
18:50	52.3	52.3	52.3	27	19.3	0	3	0	0.00	30.280 
18:55	52.2	52.2	52.2	29	20.9	0	3	22	0.00	30.280 
19:00	51.9	51.9	51.9	28	19.8	0	2	22	0.00	30.286 
19:05	51.7	51.7	51.7	28	19.7	1	5	22	0.00	30.286 
19:10	51.6	51.6	51.6	28	19.6	0	2	0	0.00	30.286 
19:15	51.4	51.4	51.4	30	21.0	1	3	90	0.00	30.291 
19:20	51.1	51.1	51.1	28	19.1	0	2	90	0.00	30.291 
19:25	50.8	50.8	50.8	29	19.7	1	5	90	0.00	30.291 
19:30	50.5	50.5	50.5	29	19.4	0	2	90	0.00	30.292 
19:35	50.2	50.2	50.2	30	20.0	0	1	90	0.00	30.292 
19:40	49.9	49.9	49.9	30	19.7	0	1	90	0.00	30.292 
19:45	49.6	49.6	49.6	31	20.2	0	2	90	0.00	30.292 
19:50	49.5	49.5	49.5	30	19.4	0	1	90	0.00	30.292 
19:55	49.2	49.2	49.2	30	19.1	0	1	90	0.00	30.292 
20:00	49.1	49.1	49.1	31	19.8	0	1	90	0.00	30.294 
20:05	48.8	48.8	48.8	33	21.0	0	1	90	0.00	30.294 
20:10	48.5	48.5	48.5	34	21.4	0	0	---	0.00	30.294 
20:15	48.0	48.0	48.0	32	19.6	0	1	90	0.00	30.293 
20:20	47.7	47.7	47.7	33	20.0	0	0	---	0.00	30.293 
20:25	47.3	47.3	47.3	33	19.7	0	0	---	0.00	30.293 
20:30	47.0	47.0	47.0	34	20.1	0	0	---	0.00	30.294 
20:35	46.4	46.4	46.4	35	20.3	0	0	---	0.00	30.294 
20:40	46.0	46.0	46.0	36	20.6	0	0	---	0.00	30.294 
20:45	45.4	45.4	45.4	36	20.0	0	0	---	0.00	30.298 
20:50	44.9	44.9	44.9	37	20.2	0	0	---	0.00	30.298 
20:55	44.5	44.5	44.5	38	20.5	0	0	---	0.00	30.298 
21:00	44.1	44.1	44.1	39	20.7	0	0	---	0.00	30.308 
21:05	43.6	43.6	43.6	40	20.9	0	0	---	0.00	30.308 
21:10	43.3	43.3	43.3	40	20.6	0	0	---	0.00	30.308 
21:15	43.2	43.2	43.2	41	21.1	0	0	---	0.00	30.307 
21:20	42.9	42.9	42.9	42	21.4	0	0	---	0.00	30.307 
21:25	42.8	42.8	42.8	42	21.3	0	0	---	0.00	30.307 
21:30	42.3	42.3	42.3	42	20.9	0	0	---	0.00	30.307 
21:35	42.1	42.1	42.1	43	21.2	0	0	---	0.00	30.307 
21:40	41.6	41.6	41.6	44	21.3	0	0	---	0.00	30.307 
21:45	41.3	41.3	41.3	45	21.6	0	0	---	0.00	30.312 
21:50	41.1	41.1	41.1	45	21.4	0	0	---	0.00	30.312 
21:55	40.8	40.8	40.8	46	21.6	0	0	---	0.00	30.312 
22:00	40.5	40.5	40.5	46	21.4	0	0	---	0.00	30.317 
22:05	40.2	40.2	40.2	46	21.1	0	0	---	0.00	30.317 
22:10	39.9	39.9	39.9	47	21.3	0	0	---	0.00	30.317 
22:15	39.6	39.6	39.6	48	21.5	0	0	---	0.00	30.312 
22:20	39.5	39.5	39.5	50	22.4	0	0	---	0.00	30.312 
22:25	39.2	39.2	39.2	51	22.6	0	0	---	0.00	30.312 
22:30	39.1	39.1	39.1	51	22.5	0	0	---	0.00	30.318 
22:35	38.8	38.8	38.8	51	22.2	0	0	---	0.00	30.318 
22:40	38.6	38.6	38.6	52	22.5	0	0	---	0.00	30.318 
22:45	38.3	38.3	38.3	52	22.2	0	0	---	0.00	30.317 
22:50	38.2	38.2	38.2	52	22.1	0	0	---	0.00	30.317 
22:55	38.0	38.0	38.0	52	22.0	0	0	---	0.00	30.317 
23:00	37.9	37.9	37.9	53	22.3	0	0	---	0.00	30.315 
23:05	38.2	38.2	38.2	52	22.1	0	0	---	0.00	30.315 
23:10	38.5	38.5	38.5	52	22.4	0	1	90	0.00	30.315 
23:15	39.1	39.1	39.1	51	22.5	0	0	---	0.00	30.316 
23:20	39.5	39.5	39.5	51	22.9	0	1	90	0.00	30.316 
23:25	39.8	39.8	39.8	50	22.7	0	1	90	0.00	30.316 
23:30	39.8	39.8	39.8	50	22.7	0	1	90	0.00	30.325 
23:35	39.8	39.8	39.8	53	24.1	0	2	90	0.00	30.325 
23:40	39.8	39.8	39.8	54	24.5	0	1	68	0.00	30.325 
23:45	39.8	39.8	39.8	55	25.0	0	1	68	0.00	30.333 
23:50	39.6	39.6	39.6	56	25.2	0	1	68	0.00	30.333 
23:55	39.5	39.5	39.5	57	25.5	0	1	68	0.00	30.333 

CoCoRaHS
IN-AL-39
A2 Web Hosting
Creative Commons License
GoDaddy
search engine by freefind advanced

loaded 2018-11-12 20:26:26 • last modified 2010-11-18 10:43:29
Privacy PolicyDisclaimer
• wx.awcolley.com is powered by PmWiki v.2002016 •
• all content (unless otherwise noted) © 2018 A W Colley